Goldendale, Washington
Current Conditions -  °F | °C
As of 4:19 AM on Thursday 18 Dec 2014 (Local Time) from KDLS Reporting Station
Haze Haze  
Wind Chill: 37°   Ceiling: 900
Heat Index: 37°   Visibility: 5mi
Dew Point: 35°   Wind: 0mph
Humidity: 93%   Direction: NA
Pressure: 30.04"   Gusts: NA
Location:  45.82°N, 120.82°W
Report Text: KDLS 181219Z AUTO 00000KT 5SM BR BKN009 OVC014 03/02 A3004 RMK AO2 CIG 008V013 T00280017
Loading
Personal Weather Stations






























Interactive Weather Map New forecast layout! Learn more

10-Day Weather Forecast

Advertisements
Track Severe Weather on mobile